sensor_id;sensor_type;location;lat;lon;timestamp;P1;durP1;ratioP1;P2;durP2;ratioP2
24048;SDS011;12250;50.956;4.746;2022-08-19T00:01:15;0.70;;;0.70;;
24048;SDS011;12250;50.956;4.746;2022-08-19T00:03:40;2.28;;;0.77;;
24048;SDS011;12250;50.956;4.746;2022-08-19T00:06:06;1.67;;;1.58;;
24048;SDS011;12250;50.956;4.746;2022-08-19T00:08:31;3.83;;;1.90;;
24048;SDS011;12250;50.956;4.746;2022-08-19T00:10:57;0.38;;;0.38;;
24048;SDS011;12250;50.956;4.746;2022-08-19T00:13:23;0.63;;;0.63;;
24048;SDS011;12250;50.956;4.746;2022-08-19T00:15:48;0.70;;;0.70;;
24048;SDS011;12250;50.956;4.746;2022-08-19T00:18:14;0.43;;;0.43;;
24048;SDS011;12250;50.956;4.746;2022-08-19T00:20:39;0.32;;;0.32;;
24048;SDS011;12250;50.956;4.746;2022-08-19T00:23:05;0.13;;;0.13;;
24048;SDS011;12250;50.956;4.746;2022-08-19T00:25:31;0.30;;;0.30;;
24048;SDS011;12250;50.956;4.746;2022-08-19T00:27:57;1.02;;;1.02;;
24048;SDS011;12250;50.956;4.746;2022-08-19T00:30:24;1.05;;;1.05;;
24048;SDS011;12250;50.956;4.746;2022-08-19T00:32:52;0.93;;;0.77;;
24048;SDS011;12250;50.956;4.746;2022-08-19T00:35:20;0.10;;;0.10;;
24048;SDS011;12250;50.956;4.746;2022-08-19T00:37:47;0.57;;;0.57;;
24048;SDS011;12250;50.956;4.746;2022-08-19T00:40:13;1.08;;;0.40;;
24048;SDS011;12250;50.956;4.746;2022-08-19T00:42:40;1.02;;;1.02;;
24048;SDS011;12250;50.956;4.746;2022-08-19T00:45:11;1.17;;;0.98;;
24048;SDS011;12250;50.956;4.746;2022-08-19T00:47:39;2.63;;;1.25;;
24048;SDS011;12250;50.956;4.746;2022-08-19T00:50:05;1.02;;;1.02;;
24048;SDS011;12250;50.956;4.746;2022-08-19T00:52:33;2.13;;;0.98;;
24048;SDS011;12250;50.956;4.746;2022-08-19T00:55:03;1.50;;;0.95;;
24048;SDS011;12250;50.956;4.746;2022-08-19T00:57:35;1.15;;;1.05;;
24048;SDS011;12250;50.956;4.746;2022-08-19T01:00:09;2.45;;;1.40;;
24048;SDS011;12250;50.956;4.746;2022-08-19T01:02:38;1.45;;;1.35;;
24048;SDS011;12250;50.956;4.746;2022-08-19T01:05:06;0.98;;;0.98;;
24048;SDS011;12250;50.956;4.746;2022-08-19T01:07:34;0.55;;;0.55;;
24048;SDS011;12250;50.956;4.746;2022-08-19T01:10:03;0.40;;;0.40;;
24048;SDS011;12250;50.956;4.746;2022-08-19T01:15:01;0.88;;;0.88;;
24048;SDS011;12250;50.956;4.746;2022-08-19T01:17:28;1.13;;;1.13;;
24048;SDS011;12250;50.956;4.746;2022-08-19T01:19:53;0.68;;;0.68;;
24048;SDS011;12250;50.956;4.746;2022-08-19T01:22:25;1.67;;;1.58;;
24048;SDS011;12250;50.956;4.746;2022-08-19T01:25:09;0.55;;;0.55;;
24048;SDS011;12250;50.956;4.746;2022-08-19T01:27:38;0.45;;;0.45;;
24048;SDS011;12250;50.956;4.746;2022-08-19T01:30:06;1.70;;;1.52;;
24048;SDS011;12250;50.956;4.746;2022-08-19T01:32:32;3.20;;;1.85;;
24048;SDS011;12250;50.956;4.746;2022-08-19T01:34:58;4.97;;;2.08;;
24048;SDS011;12250;50.956;4.746;2022-08-19T01:37:26;1.95;;;1.80;;
24048;SDS011;12250;50.956;4.746;2022-08-19T01:39:52;1.60;;;1.50;;
24048;SDS011;12250;50.956;4.746;2022-08-19T01:42:18;1.35;;;1.30;;
24048;SDS011;12250;50.956;4.746;2022-08-19T01:44:44;3.50;;;2.05;;
24048;SDS011;12250;50.956;4.746;2022-08-19T01:47:10;3.65;;;2.08;;
24048;SDS011;12250;50.956;4.746;2022-08-19T01:49:36;0.43;;;0.43;;
24048;SDS011;12250;50.956;4.746;2022-08-19T01:52:02;2.42;;;2.22;;
24048;SDS011;12250;50.956;4.746;2022-08-19T01:54:29;1.63;;;1.52;;
24048;SDS011;12250;50.956;4.746;2022-08-19T01:57:00;3.25;;;1.75;;
24048;SDS011;12250;50.956;4.746;2022-08-19T01:59:29;1.38;;;1.08;;
24048;SDS011;12250;50.956;4.746;2022-08-19T02:01:56;1.75;;;1.65;;
24048;SDS011;12250;50.956;4.746;2022-08-19T02:04:22;3.63;;;2.90;;
24048;SDS011;12250;50.956;4.746;2022-08-19T02:06:48;2.42;;;1.75;;
24048;SDS011;12250;50.956;4.746;2022-08-19T02:09:14;2.60;;;1.40;;
24048;SDS011;12250;50.956;4.746;2022-08-19T02:11:41;0.65;;;0.65;;
24048;SDS011;12250;50.956;4.746;2022-08-19T02:14:07;3.08;;;1.60;;
24048;SDS011;12250;50.956;4.746;2022-08-19T02:16:33;3.42;;;1.70;;
24048;SDS011;12250;50.956;4.746;2022-08-19T02:19:00;2.80;;;2.55;;
24048;SDS011;12250;50.956;4.746;2022-08-19T02:21:26;0.93;;;0.90;;
24048;SDS011;12250;50.956;4.746;2022-08-19T02:23:53;1.30;;;0.93;;
24048;SDS011;12250;50.956;4.746;2022-08-19T02:26:18;0.80;;;0.80;;
24048;SDS011;12250;50.956;4.746;2022-08-19T02:28:45;2.13;;;1.95;;
24048;SDS011;12250;50.956;4.746;2022-08-19T02:31:15;2.95;;;1.70;;
24048;SDS011;12250;50.956;4.746;2022-08-19T02:33:42;1.38;;;1.27;;
24048;SDS011;12250;50.956;4.746;2022-08-19T02:36:09;2.25;;;1.60;;
24048;SDS011;12250;50.956;4.746;2022-08-19T02:38:36;2.22;;;2.13;;
24048;SDS011;12250;50.956;4.746;2022-08-19T02:41:04;1.58;;;1.13;;
24048;SDS011;12250;50.956;4.746;2022-08-19T02:43:36;5.00;;;2.47;;
24048;SDS011;12250;50.956;4.746;2022-08-19T02:46:10;2.15;;;1.80;;
24048;SDS011;12250;50.956;4.746;2022-08-19T02:48:45;2.95;;;2.03;;
24048;SDS011;12250;50.956;4.746;2022-08-19T02:51:15;4.03;;;1.65;;
24048;SDS011;12250;50.956;4.746;2022-08-19T02:53:47;1.50;;;1.42;;
24048;SDS011;12250;50.956;4.746;2022-08-19T02:56:13;1.88;;;1.77;;
24048;SDS011;12250;50.956;4.746;2022-08-19T02:58:39;2.05;;;1.85;;
24048;SDS011;12250;50.956;4.746;2022-08-19T03:01:05;1.65;;;1.55;;
24048;SDS011;12250;50.956;4.746;2022-08-19T03:03:31;1.27;;;0.93;;
24048;SDS011;12250;50.956;4.746;2022-08-19T03:06:04;2.72;;;1.75;;
24048;SDS011;12250;50.956;4.746;2022-08-19T03:08:34;6.88;;;4.13;;
24048;SDS011;12250;50.956;4.746;2022-08-19T03:11:01;3.58;;;3.28;;
24048;SDS011;12250;50.956;4.746;2022-08-19T03:13:27;1.90;;;1.80;;
24048;SDS011;12250;50.956;4.746;2022-08-19T03:15:53;0.85;;;0.85;;
24048;SDS011;12250;50.956;4.746;2022-08-19T03:18:18;4.03;;;3.72;;
24048;SDS011;12250;50.956;4.746;2022-08-19T03:20:48;1.90;;;1.80;;
24048;SDS011;12250;50.956;4.746;2022-08-19T03:23:15;4.40;;;1.55;;
24048;SDS011;12250;50.956;4.746;2022-08-19T03:25:42;4.30;;;2.28;;
24048;SDS011;12250;50.956;4.746;2022-08-19T03:28:10;2.22;;;1.15;;
24048;SDS011;12250;50.956;4.746;2022-08-19T03:30:37;1.52;;;1.42;;
24048;SDS011;12250;50.956;4.746;2022-08-19T03:33:05;2.55;;;2.35;;
24048;SDS011;12250;50.956;4.746;2022-08-19T03:35:31;2.03;;;1.88;;
24048;SDS011;12250;50.956;4.746;2022-08-19T03:37:58;1.65;;;1.55;;
24048;SDS011;12250;50.956;4.746;2022-08-19T03:40:24;3.05;;;2.85;;
24048;SDS011;12250;50.956;4.746;2022-08-19T03:42:50;7.85;;;1.67;;
24048;SDS011;12250;50.956;4.746;2022-08-19T03:45:16;2.85;;;2.60;;
24048;SDS011;12250;50.956;4.746;2022-08-19T03:47:43;0.80;;;0.65;;
24048;SDS011;12250;50.956;4.746;2022-08-19T03:50:08;3.13;;;1.77;;
24048;SDS011;12250;50.956;4.746;2022-08-19T03:52:34;2.85;;;1.35;;
24048;SDS011;12250;50.956;4.746;2022-08-19T03:55:00;3.17;;;2.97;;
24048;SDS011;12250;50.956;4.746;2022-08-19T03:57:27;1.38;;;1.38;;
24048;SDS011;12250;50.956;4.746;2022-08-19T03:59:53;3.80;;;2.63;;
24048;SDS011;12250;50.956;4.746;2022-08-19T04:02:18;1.98;;;1.63;;
24048;SDS011;12250;50.956;4.746;2022-08-19T04:04:45;1.35;;;1.30;;
24048;SDS011;12250;50.956;4.746;2022-08-19T04:07:11;1.35;;;1.35;;
24048;SDS011;12250;50.956;4.746;2022-08-19T04:09:40;3.13;;;1.98;;
24048;SDS011;12250;50.956;4.746;2022-08-19T04:12:06;3.28;;;3.08;;
24048;SDS011;12250;50.956;4.746;2022-08-19T04:14:32;1.88;;;1.77;;
24048;SDS011;12250;50.956;4.746;2022-08-19T04:16:58;1.70;;;1.55;;
24048;SDS011;12250;50.956;4.746;2022-08-19T04:19:25;3.95;;;3.20;;
24048;SDS011;12250;50.956;4.746;2022-08-19T04:21:52;5.07;;;1.75;;
24048;SDS011;12250;50.956;4.746;2022-08-19T04:24:19;1.10;;;1.05;;
24048;SDS011;12250;50.956;4.746;2022-08-19T04:26:46;1.13;;;1.02;;
24048;SDS011;12250;50.956;4.746;2022-08-19T04:29:23;2.28;;;2.17;;
24048;SDS011;12250;50.956;4.746;2022-08-19T04:31:50;3.28;;;3.08;;
24048;SDS011;12250;50.956;4.746;2022-08-19T04:34:19;1.75;;;1.60;;
24048;SDS011;12250;50.956;4.746;2022-08-19T04:36:50;1.08;;;1.08;;
24048;SDS011;12250;50.956;4.746;2022-08-19T04:39:19;0.88;;;0.88;;
24048;SDS011;12250;50.956;4.746;2022-08-19T04:41:46;1.67;;;1.42;;
24048;SDS011;12250;50.956;4.746;2022-08-19T04:44:31;3.72;;;2.85;;
24048;SDS011;12250;50.956;4.746;2022-08-19T04:46:58;1.33;;;1.23;;
24048;SDS011;12250;50.956;4.746;2022-08-19T04:49:24;3.38;;;1.98;;
24048;SDS011;12250;50.956;4.746;2022-08-19T04:51:51;1.23;;;1.13;;
24048;SDS011;12250;50.956;4.746;2022-08-19T04:54:19;0.63;;;0.63;;
24048;SDS011;12250;50.956;4.746;2022-08-19T04:56:47;1.58;;;1.48;;
24048;SDS011;12250;50.956;4.746;2022-08-19T04:59:14;2.70;;;2.33;;
24048;SDS011;12250;50.956;4.746;2022-08-19T05:01:42;2.08;;;1.98;;
24048;SDS011;12250;50.956;4.746;2022-08-19T05:04:07;3.10;;;0.55;;
24048;SDS011;12250;50.956;4.746;2022-08-19T05:06:34;2.35;;;1.90;;
24048;SDS011;12250;50.956;4.746;2022-08-19T05:09:03;2.97;;;2.17;;
24048;SDS011;12250;50.956;4.746;2022-08-19T05:11:31;0.90;;;0.90;;
24048;SDS011;12250;50.956;4.746;2022-08-19T05:13:59;4.93;;;1.40;;
24048;SDS011;12250;50.956;4.746;2022-08-19T05:16:25;2.22;;;1.40;;
24048;SDS011;12250;50.956;4.746;2022-08-19T05:18:52;1.85;;;0.75;;
24048;SDS011;12250;50.956;4.746;2022-08-19T05:21:38;0.35;;;0.35;;
24048;SDS011;12250;50.956;4.746;2022-08-19T05:24:23;2.47;;;2.13;;
24048;SDS011;12250;50.956;4.746;2022-08-19T05:26:50;0.32;;;0.32;;
24048;SDS011;12250;50.956;4.746;2022-08-19T05:29:18;2.00;;;1.67;;
24048;SDS011;12250;50.956;4.746;2022-08-19T05:31:45;1.50;;;1.40;;
24048;SDS011;12250;50.956;4.746;2022-08-19T05:34:14;2.05;;;1.85;;
24048;SDS011;12250;50.956;4.746;2022-08-19T05:36:42;1.92;;;1.80;;
24048;SDS011;12250;50.956;4.746;2022-08-19T05:39:10;0.68;;;0.68;;
24048;SDS011;12250;50.956;4.746;2022-08-19T05:41:42;3.87;;;1.10;;
24048;SDS011;12250;50.956;4.746;2022-08-19T05:44:12;2.58;;;0.82;;
24048;SDS011;12250;50.956;4.746;2022-08-19T05:46:39;0.93;;;0.93;;
24048;SDS011;12250;50.956;4.746;2022-08-19T05:49:08;1.02;;;1.02;;
24048;SDS011;12250;50.956;4.746;2022-08-19T05:51:34;1.23;;;1.13;;
24048;SDS011;12250;50.956;4.746;2022-08-19T05:54:02;0.90;;;0.80;;
24048;SDS011;12250;50.956;4.746;2022-08-19T05:56:29;1.63;;;1.52;;
24048;SDS011;12250;50.956;4.746;2022-08-19T05:58:55;2.92;;;1.55;;
24048;SDS011;12250;50.956;4.746;2022-08-19T06:01:21;2.78;;;2.58;;
24048;SDS011;12250;50.956;4.746;2022-08-19T06:03:47;0.43;;;0.43;;
24048;SDS011;12250;50.956;4.746;2022-08-19T06:06:13;2.78;;;1.20;;
24048;SDS011;12250;50.956;4.746;2022-08-19T06:08:40;1.27;;;1.17;;
24048;SDS011;12250;50.956;4.746;2022-08-19T06:11:15;3.92;;;1.42;;
24048;SDS011;12250;50.956;4.746;2022-08-19T06:13:44;0.30;;;0.30;;
24048;SDS011;12250;50.956;4.746;2022-08-19T06:16:12;2.50;;;2.30;;
24048;SDS011;12250;50.956;4.746;2022-08-19T06:18:44;1.30;;;0.47;;
24048;SDS011;12250;50.956;4.746;2022-08-19T06:21:10;1.38;;;1.27;;
24048;SDS011;12250;50.956;4.746;2022-08-19T06:23:35;3.10;;;2.78;;
24048;SDS011;12250;50.956;4.746;2022-08-19T06:26:01;1.63;;;1.52;;
24048;SDS011;12250;50.956;4.746;2022-08-19T06:28:26;2.45;;;1.05;;
24048;SDS011;12250;50.956;4.746;2022-08-19T06:30:52;1.23;;;0.80;;
24048;SDS011;12250;50.956;4.746;2022-08-19T06:33:17;2.33;;;1.55;;
24048;SDS011;12250;50.956;4.746;2022-08-19T06:35:43;1.42;;;1.17;;
24048;SDS011;12250;50.956;4.746;2022-08-19T06:38:09;2.22;;;1.83;;
24048;SDS011;12250;50.956;4.746;2022-08-19T06:40:35;0.68;;;0.68;;
24048;SDS011;12250;50.956;4.746;2022-08-19T06:43:02;0.47;;;0.47;;
24048;SDS011;12250;50.956;4.746;2022-08-19T06:45:28;0.77;;;0.77;;
24048;SDS011;12250;50.956;4.746;2022-08-19T06:47:53;0.80;;;0.75;;
24048;SDS011;12250;50.956;4.746;2022-08-19T06:50:21;1.90;;;1.33;;
24048;SDS011;12250;50.956;4.746;2022-08-19T06:52:47;0.30;;;0.30;;
24048;SDS011;12250;50.956;4.746;2022-08-19T06:55:13;2.00;;;0.77;;
24048;SDS011;12250;50.956;4.746;2022-08-19T06:57:40;0.65;;;0.65;;
24048;SDS011;12250;50.956;4.746;2022-08-19T07:00:07;2.33;;;0.90;;
24048;SDS011;12250;50.956;4.746;2022-08-19T07:02:36;2.95;;;1.50;;
24048;SDS011;12250;50.956;4.746;2022-08-19T07:05:02;0.73;;;0.73;;
24048;SDS011;12250;50.956;4.746;2022-08-19T07:07:29;0.20;;;0.13;;
24048;SDS011;12250;50.956;4.746;2022-08-19T07:09:56;1.85;;;1.15;;
24048;SDS011;12250;50.956;4.746;2022-08-19T07:12:22;0.82;;;0.77;;
24048;SDS011;12250;50.956;4.746;2022-08-19T07:14:47;1.02;;;0.77;;
24048;SDS011;12250;50.956;4.746;2022-08-19T07:17:14;3.50;;;1.55;;
24048;SDS011;12250;50.956;4.746;2022-08-19T07:19:40;3.78;;;1.75;;
24048;SDS011;12250;50.956;4.746;2022-08-19T07:22:07;0.38;;;0.38;;
24048;SDS011;12250;50.956;4.746;2022-08-19T07:24:34;3.72;;;1.65;;
24048;SDS011;12250;50.956;4.746;2022-08-19T07:27:00;1.40;;;1.23;;
24048;SDS011;12250;50.956;4.746;2022-08-19T07:29:29;0.05;;;0.05;;
24048;SDS011;12250;50.956;4.746;2022-08-19T07:31:56;0.98;;;0.95;;
24048;SDS011;12250;50.956;4.746;2022-08-19T07:34:23;0.75;;;0.75;;
24048;SDS011;12250;50.956;4.746;2022-08-19T07:36:50;1.02;;;0.80;;
24048;SDS011;12250;50.956;4.746;2022-08-19T07:39:18;1.58;;;1.27;;
24048;SDS011;12250;50.956;4.746;2022-08-19T07:41:48;1.33;;;0.80;;
24048;SDS011;12250;50.956;4.746;2022-08-19T07:44:15;0.25;;;0.22;;
24048;SDS011;12250;50.956;4.746;2022-08-19T07:46:42;1.00;;;0.60;;
24048;SDS011;12250;50.956;4.746;2022-08-19T07:49:10;0.45;;;0.35;;
24048;SDS011;12250;50.956;4.746;2022-08-19T07:51:42;0.40;;;0.40;;
24048;SDS011;12250;50.956;4.746;2022-08-19T07:54:09;0.77;;;0.77;;
24048;SDS011;12250;50.956;4.746;2022-08-19T07:56:37;0.55;;;0.55;;
24048;SDS011;12250;50.956;4.746;2022-08-19T07:59:03;1.95;;;1.35;;
24048;SDS011;12250;50.956;4.746;2022-08-19T08:01:28;9.00;;;1.58;;
24048;SDS011;12250;50.956;4.746;2022-08-19T08:03:55;0.35;;;0.30;;
24048;SDS011;12250;50.956;4.746;2022-08-19T08:06:40;0.47;;;0.47;;
24048;SDS011;12250;50.956;4.746;2022-08-19T08:09:27;0.22;;;0.20;;
24048;SDS011;12250;50.956;4.746;2022-08-19T08:12:01;0.68;;;0.60;;
24048;SDS011;12250;50.956;4.746;2022-08-19T08:14:33;0.10;;;0.10;;
24048;SDS011;12250;50.956;4.746;2022-08-19T08:17:02;0.57;;;0.50;;
24048;SDS011;12250;50.956;4.746;2022-08-19T08:19:29;1.67;;;1.58;;
24048;SDS011;12250;50.956;4.746;2022-08-19T08:21:56;9.07;;;1.60;;
24048;SDS011;12250;50.956;4.746;2022-08-19T08:24:24;1.55;;;0.80;;
24048;SDS011;12250;50.956;4.746;2022-08-19T08:26:50;0.22;;;0.22;;
24048;SDS011;12250;50.956;4.746;2022-08-19T08:29:16;0.43;;;0.43;;
24048;SDS011;12250;50.956;4.746;2022-08-19T08:31:43;0.00;;;0.00;;
24048;SDS011;12250;50.956;4.746;2022-08-19T08:34:09;0.15;;;0.15;;
24048;SDS011;12250;50.956;4.746;2022-08-19T08:36:37;0.40;;;0.30;;
24048;SDS011;12250;50.956;4.746;2022-08-19T08:39:06;0.35;;;0.35;;
24048;SDS011;12250;50.956;4.746;2022-08-19T08:44:19;0.88;;;0.47;;
24048;SDS011;12250;50.956;4.746;2022-08-19T08:46:51;0.10;;;0.10;;
24048;SDS011;12250;50.956;4.746;2022-08-19T08:51:52;0.08;;;0.08;;
24048;SDS011;12250;50.956;4.746;2022-08-19T08:54:25;0.10;;;0.10;;
24048;SDS011;12250;50.956;4.746;2022-08-19T08:56:56;0.10;;;0.10;;
24048;SDS011;12250;50.956;4.746;2022-08-19T08:59:30;0.32;;;0.30;;
24048;SDS011;12250;50.956;4.746;2022-08-19T09:01:59;0.30;;;0.30;;
24048;SDS011;12250;50.956;4.746;2022-08-19T09:04:25;0.15;;;0.10;;
24048;SDS011;12250;50.956;4.746;2022-08-19T09:09:30;0.30;;;0.30;;
24048;SDS011;12250;50.956;4.746;2022-08-19T09:14:48;0.22;;;0.15;;
24048;SDS011;12250;50.956;4.746;2022-08-19T09:17:20;0.00;;;0.00;;
24048;SDS011;12250;50.956;4.746;2022-08-19T09:22:43;0.47;;;0.40;;
24048;SDS011;12250;50.956;4.746;2022-08-19T09:25:16;0.30;;;0.30;;
24048;SDS011;12250;50.956;4.746;2022-08-19T09:27:46;0.40;;;0.40;;
24048;SDS011;12250;50.956;4.746;2022-08-19T09:30:15;0.10;;;0.10;;
24048;SDS011;12250;50.956;4.746;2022-08-19T09:32:43;0.10;;;0.10;;
24048;SDS011;12250;50.956;4.746;2022-08-19T09:35:10;0.00;;;0.00;;
24048;SDS011;12250;50.956;4.746;2022-08-19T09:37:37;0.95;;;0.75;;
24048;SDS011;12250;50.956;4.746;2022-08-19T09:40:03;0.65;;;0.65;;
24048;SDS011;12250;50.956;4.746;2022-08-19T09:42:30;1.13;;;0.10;;
24048;SDS011;12250;50.956;4.746;2022-08-19T09:44:55;3.70;;;1.05;;
24048;SDS011;12250;50.956;4.746;2022-08-19T09:47:21;0.90;;;0.75;;
24048;SDS011;12250;50.956;4.746;2022-08-19T09:49:46;0.35;;;0.35;;
24048;SDS011;12250;50.956;4.746;2022-08-19T09:52:13;0.10;;;0.10;;
24048;SDS011;12250;50.956;4.746;2022-08-19T09:54:40;0.00;;;0.00;;
24048;SDS011;12250;50.956;4.746;2022-08-19T09:57:07;0.10;;;0.10;;
24048;SDS011;12250;50.956;4.746;2022-08-19T09:59:33;0.08;;;0.00;;
24048;SDS011;12250;50.956;4.746;2022-08-19T10:01:58;0.20;;;0.20;;
24048;SDS011;12250;50.956;4.746;2022-08-19T10:04:24;0.20;;;0.13;;
24048;SDS011;12250;50.956;4.746;2022-08-19T10:07:10;0.30;;;0.30;;
24048;SDS011;12250;50.956;4.746;2022-08-19T10:09:36;0.35;;;0.30;;
24048;SDS011;12250;50.956;4.746;2022-08-19T10:12:02;0.00;;;0.00;;
24048;SDS011;12250;50.956;4.746;2022-08-19T10:14:30;0.50;;;0.50;;
24048;SDS011;12250;50.956;4.746;2022-08-19T10:16:58;1.83;;;1.73;;
24048;SDS011;12250;50.956;4.746;2022-08-19T10:19:25;0.20;;;0.20;;
24048;SDS011;12250;50.956;4.746;2022-08-19T10:21:54;0.43;;;0.40;;
24048;SDS011;12250;50.956;4.746;2022-08-19T10:24:20;0.45;;;0.28;;
24048;SDS011;12250;50.956;4.746;2022-08-19T10:26:49;0.73;;;0.73;;
24048;SDS011;12250;50.956;4.746;2022-08-19T10:29:15;0.10;;;0.10;;
24048;SDS011;12250;50.956;4.746;2022-08-19T10:31:41;1.63;;;1.20;;
24048;SDS011;12250;50.956;4.746;2022-08-19T10:34:07;0.40;;;0.40;;
24048;SDS011;12250;50.956;4.746;2022-08-19T10:36:34;0.45;;;0.22;;
24048;SDS011;12250;50.956;4.746;2022-08-19T10:39:05;0.20;;;0.20;;
24048;SDS011;12250;50.956;4.746;2022-08-19T10:41:34;0.00;;;0.00;;
24048;SDS011;12250;50.956;4.746;2022-08-19T10:44:03;0.00;;;0.00;;
24048;SDS011;12250;50.956;4.746;2022-08-19T10:49:02;0.32;;;0.05;;
24048;SDS011;12250;50.956;4.746;2022-08-19T10:51:28;0.25;;;0.25;;
24048;SDS011;12250;50.956;4.746;2022-08-19T10:54:13;0.30;;;0.15;;
24048;SDS011;12250;50.956;4.746;2022-08-19T10:56:40;0.10;;;0.10;;
24048;SDS011;12250;50.956;4.746;2022-08-19T10:59:19;0.00;;;0.00;;
24048;SDS011;12250;50.956;4.746;2022-08-19T11:01:54;0.32;;;0.22;;
24048;SDS011;12250;50.956;4.746;2022-08-19T11:04:24;0.90;;;0.35;;
24048;SDS011;12250;50.956;4.746;2022-08-19T11:06:50;0.30;;;0.30;;
24048;SDS011;12250;50.956;4.746;2022-08-19T11:09:19;0.28;;;0.15;;
24048;SDS011;12250;50.956;4.746;2022-08-19T11:11:49;1.00;;;0.32;;
24048;SDS011;12250;50.956;4.746;2022-08-19T11:14:16;1.85;;;0.40;;
24048;SDS011;12250;50.956;4.746;2022-08-19T11:16:49;0.35;;;0.32;;
24048;SDS011;12250;50.956;4.746;2022-08-19T11:19:16;0.50;;;0.32;;
24048;SDS011;12250;50.956;4.746;2022-08-19T11:21:45;7.82;;;0.75;;
24048;SDS011;12250;50.956;4.746;2022-08-19T11:24:17;0.63;;;0.35;;
24048;SDS011;12250;50.956;4.746;2022-08-19T11:26:45;0.90;;;0.47;;
24048;SDS011;12250;50.956;4.746;2022-08-19T11:29:14;0.63;;;0.45;;
24048;SDS011;12250;50.956;4.746;2022-08-19T11:31:41;0.30;;;0.30;;
24048;SDS011;12250;50.956;4.746;2022-08-19T11:34:09;0.10;;;0.10;;
24048;SDS011;12250;50.956;4.746;2022-08-19T11:36:38;1.35;;;1.13;;
24048;SDS011;12250;50.956;4.746;2022-08-19T11:39:06;0.50;;;0.28;;
24048;SDS011;12250;50.956;4.746;2022-08-19T11:41:32;0.20;;;0.00;;
24048;SDS011;12250;50.956;4.746;2022-08-19T11:43:58;0.00;;;0.00;;
24048;SDS011;12250;50.956;4.746;2022-08-19T11:46:24;0.93;;;0.10;;
24048;SDS011;12250;50.956;4.746;2022-08-19T11:48:54;0.20;;;0.15;;
24048;SDS011;12250;50.956;4.746;2022-08-19T11:51:22;0.20;;;0.20;;
24048;SDS011;12250;50.956;4.746;2022-08-19T11:53:49;0.00;;;0.00;;
24048;SDS011;12250;50.956;4.746;2022-08-19T11:56:15;0.10;;;0.10;;
24048;SDS011;12250;50.956;4.746;2022-08-19T11:58:42;3.20;;;0.40;;
24048;SDS011;12250;50.956;4.746;2022-08-19T12:01:09;0.15;;;0.15;;
24048;SDS011;12250;50.956;4.746;2022-08-19T12:03:36;0.00;;;0.00;;
24048;SDS011;12250;50.956;4.746;2022-08-19T12:06:03;0.00;;;0.00;;
24048;SDS011;12250;50.956;4.746;2022-08-19T12:08:42;0.20;;;0.15;;
24048;SDS011;12250;50.956;4.746;2022-08-19T12:11:09;0.32;;;0.10;;
24048;SDS011;12250;50.956;4.746;2022-08-19T12:13:37;0.00;;;0.00;;
24048;SDS011;12250;50.956;4.746;2022-08-19T12:16:07;0.35;;;0.20;;
24048;SDS011;12250;50.956;4.746;2022-08-19T12:18:36;0.38;;;0.35;;
24048;SDS011;12250;50.956;4.746;2022-08-19T12:21:02;0.20;;;0.20;;
24048;SDS011;12250;50.956;4.746;2022-08-19T12:23:28;0.47;;;0.40;;
24048;SDS011;12250;50.956;4.746;2022-08-19T12:25:54;0.25;;;0.25;;
24048;SDS011;12250;50.956;4.746;2022-08-19T12:28:22;0.10;;;0.10;;
24048;SDS011;12250;50.956;4.746;2022-08-19T12:30:49;0.15;;;0.15;;
24048;SDS011;12250;50.956;4.746;2022-08-19T12:33:16;0.70;;;0.20;;
24048;SDS011;12250;50.956;4.746;2022-08-19T12:35:43;0.00;;;0.00;;
24048;SDS011;12250;50.956;4.746;2022-08-19T12:38:11;0.20;;;0.13;;
24048;SDS011;12250;50.956;4.746;2022-08-19T12:40:37;0.05;;;0.05;;
24048;SDS011;12250;50.956;4.746;2022-08-19T12:43:04;0.20;;;0.15;;
24048;SDS011;12250;50.956;4.746;2022-08-19T12:45:31;0.30;;;0.10;;
24048;SDS011;12250;50.956;4.746;2022-08-19T12:47:56;0.32;;;0.32;;
24048;SDS011;12250;50.956;4.746;2022-08-19T12:50:22;0.00;;;0.00;;
24048;SDS011;12250;50.956;4.746;2022-08-19T12:52:48;0.00;;;0.00;;
24048;SDS011;12250;50.956;4.746;2022-08-19T12:55:14;0.15;;;0.15;;
24048;SDS011;12250;50.956;4.746;2022-08-19T12:57:40;0.45;;;0.45;;
24048;SDS011;12250;50.956;4.746;2022-08-19T13:00:08;0.00;;;0.00;;
24048;SDS011;12250;50.956;4.746;2022-08-19T13:02:38;1.25;;;0.20;;
24048;SDS011;12250;50.956;4.746;2022-08-19T13:05:06;0.35;;;0.35;;
24048;SDS011;12250;50.956;4.746;2022-08-19T13:07:33;0.00;;;0.00;;
24048;SDS011;12250;50.956;4.746;2022-08-19T13:09:59;0.32;;;0.32;;
24048;SDS011;12250;50.956;4.746;2022-08-19T13:12:25;1.35;;;0.38;;
24048;SDS011;12250;50.956;4.746;2022-08-19T13:14:52;0.17;;;0.10;;
24048;SDS011;12250;50.956;4.746;2022-08-19T13:17:19;0.40;;;0.17;;
24048;SDS011;12250;50.956;4.746;2022-08-19T13:19:45;0.50;;;0.25;;
24048;SDS011;12250;50.956;4.746;2022-08-19T13:22:11;0.57;;;0.20;;
24048;SDS011;12250;50.956;4.746;2022-08-19T13:24:37;0.47;;;0.22;;
24048;SDS011;12250;50.956;4.746;2022-08-19T13:27:03;0.15;;;0.15;;
24048;SDS011;12250;50.956;4.746;2022-08-19T13:29:28;0.22;;;0.22;;
24048;SDS011;12250;50.956;4.746;2022-08-19T13:32:13;0.25;;;0.10;;
24048;SDS011;12250;50.956;4.746;2022-08-19T13:34:57;0.08;;;0.05;;
24048;SDS011;12250;50.956;4.746;2022-08-19T13:37:23;0.50;;;0.20;;
24048;SDS011;12250;50.956;4.746;2022-08-19T13:40:17;3.10;;;0.52;;
24048;SDS011;12250;50.956;4.746;2022-08-19T13:42:45;0.38;;;0.28;;
24048;SDS011;12250;50.956;4.746;2022-08-19T13:45:13;0.10;;;0.10;;
24048;SDS011;12250;50.956;4.746;2022-08-19T13:47:41;0.47;;;0.38;;
24048;SDS011;12250;50.956;4.746;2022-08-19T13:50:11;0.45;;;0.10;;
24048;SDS011;12250;50.956;4.746;2022-08-19T13:52:38;2.35;;;0.47;;
24048;SDS011;12250;50.956;4.746;2022-08-19T13:55:04;0.00;;;0.00;;
24048;SDS011;12250;50.956;4.746;2022-08-19T13:57:31;0.22;;;0.20;;
24048;SDS011;12250;50.956;4.746;2022-08-19T13:59:58;1.08;;;0.17;;
24048;SDS011;12250;50.956;4.746;2022-08-19T14:02:24;0.17;;;0.15;;
24048;SDS011;12250;50.956;4.746;2022-08-19T14:04:51;1.85;;;0.38;;
24048;SDS011;12250;50.956;4.746;2022-08-19T14:07:17;0.40;;;0.40;;
24048;SDS011;12250;50.956;4.746;2022-08-19T14:09:43;0.50;;;0.30;;
24048;SDS011;12250;50.956;4.746;2022-08-19T14:12:09;0.00;;;0.00;;
24048;SDS011;12250;50.956;4.746;2022-08-19T14:14:38;0.00;;;0.00;;
24048;SDS011;12250;50.956;4.746;2022-08-19T14:17:07;0.00;;;0.00;;
24048;SDS011;12250;50.956;4.746;2022-08-19T14:19:34;0.00;;;0.00;;
24048;SDS011;12250;50.956;4.746;2022-08-19T14:22:00;0.00;;;0.00;;
24048;SDS011;12250;50.956;4.746;2022-08-19T14:24:26;0.00;;;0.00;;
24048;SDS011;12250;50.956;4.746;2022-08-19T14:26:52;0.00;;;0.00;;
24048;SDS011;12250;50.956;4.746;2022-08-19T14:29:17;0.00;;;0.00;;
24048;SDS011;12250;50.956;4.746;2022-08-19T14:31:43;0.00;;;0.00;;
24048;SDS011;12250;50.956;4.746;2022-08-19T14:34:09;0.15;;;0.15;;
24048;SDS011;12250;50.956;4.746;2022-08-19T14:36:35;0.10;;;0.10;;
24048;SDS011;12250;50.956;4.746;2022-08-19T14:39:02;0.00;;;0.00;;
24048;SDS011;12250;50.956;4.746;2022-08-19T14:41:28;0.55;;;0.20;;
24048;SDS011;12250;50.956;4.746;2022-08-19T14:43:55;0.00;;;0.00;;
24048;SDS011;12250;50.956;4.746;2022-08-19T14:46:22;0.28;;;0.28;;
24048;SDS011;12250;50.956;4.746;2022-08-19T14:48:50;0.08;;;0.08;;
24048;SDS011;12250;50.956;4.746;2022-08-19T14:51:16;0.00;;;0.00;;
24048;SDS011;12250;50.956;4.746;2022-08-19T14:53:43;0.00;;;0.00;;
24048;SDS011;12250;50.956;4.746;2022-08-19T14:56:10;0.05;;;0.03;;
24048;SDS011;12250;50.956;4.746;2022-08-19T14:58:38;0.00;;;0.00;;
24048;SDS011;12250;50.956;4.746;2022-08-19T15:01:07;0.00;;;0.00;;
24048;SDS011;12250;50.956;4.746;2022-08-19T15:03:33;0.68;;;0.20;;
24048;SDS011;12250;50.956;4.746;2022-08-19T15:05:59;0.00;;;0.00;;
24048;SDS011;12250;50.956;4.746;2022-08-19T15:08:27;0.30;;;0.25;;
24048;SDS011;12250;50.956;4.746;2022-08-19T15:10:55;0.00;;;0.00;;